Time;durP1;ratioP1;P1;durP2;ratioP2;P2;SDS_P1;SDS_P2;PMS_P1;PMS_P2;Temp;Humidity;BMP_temperature;BMP_pressure;BME280_temperature;BME280_humidity;BME280_pressure;Samples;Min_cycle;Max_cycle;Signal;HPM_P1;HPM_P2
2023/12/25 00:00:03;;;;;;;;;;;;;;;11.32;80.92;99736.66;7368466;19;19919;-67
2023/12/25 00:02:28;;;;;;;;;;;;;;;11.33;80.93;99741.81;7366275;19;19957;-68
2023/12/25 00:04:53;;;;;;;;;;;;;;;11.36;80.75;99753.94;7375085;19;20648;-67
2023/12/25 00:07:18;;;;;;;;;;;;;;;11.37;80.98;99764.31;7367692;19;19919;-67
2023/12/25 00:09:44;;;;;;;;;;;;;;;11.39;81.11;99767.69;7368799;19;19938;-67
2023/12/25 00:12:09;;;;;;;;;;;;;;;11.41;80.98;99765.03;7366920;19;19987;-67
2023/12/25 00:14:34;;;;;;;;;;;;;;;11.41;81.03;99738.91;7367047;19;19931;-67
2023/12/25 00:16:59;;;;;;;;;;;;;;;11.44;80.90;99760.50;7362795;19;19933;-67
2023/12/25 00:19:26;;;;;;;;;;;;;;;11.46;80.86;99759.63;7364421;19;19978;-67
2023/12/25 00:21:51;;;;;;;;;;;;;;;11.47;80.81;99751.72;7368908;19;19923;-67
2023/12/25 00:24:16;;;;;;;;;;;;;;;11.48;81.00;99753.41;7365967;19;20549;-66
2023/12/25 00:26:42;;;;;;;;;;;;;;;11.49;80.99;99747.25;7369249;19;19948;-67
2023/12/25 00:29:07;;;;;;;;;;;;;;;11.51;80.69;99745.44;7367118;19;19915;-66
2023/12/25 00:31:33;;;;;;;;;;;;;;;11.51;80.58;99748.06;7351374;19;19926;-67
2023/12/25 00:33:58;;;;;;;;;;;;;;;11.52;80.43;99744.53;7339400;19;19923;-67
2023/12/25 00:36:23;;;;;;;;;;;;;;;11.53;80.66;99745.38;7350222;19;21068;-67
2023/12/25 00:38:49;;;;;;;;;;;;;;;11.50;80.72;99738.50;7363516;19;19907;-67
2023/12/25 00:41:14;;;;;;;;;;;;;;;11.50;80.26;99748.94;7369884;19;19926;-66
2023/12/25 00:43:39;;;;;;;;;;;;;;;11.49;80.49;99760.34;7366991;19;19914;-67
2023/12/25 00:46:05;;;;;;;;;;;;;;;11.48;80.14;99747.34;7369838;19;19918;-67
2023/12/25 00:48:30;;;;;;;;;;;;;;;11.47;80.50;99745.63;7367120;19;20018;-67
2023/12/25 00:50:55;;;;;;;;;;;;;;;11.44;80.01;99757.91;7361540;19;20346;-67
2023/12/25 00:53:20;;;;;;;;;;;;;;;11.43;80.28;99748.38;7359191;19;19911;-67
2023/12/25 00:55:46;;;;;;;;;;;;;;;11.43;80.32;99748.38;7367262;19;20002;-67
2023/12/25 00:58:12;;;;;;;;;;;;;;;11.42;80.48;99757.13;7367500;19;20323;-67
2023/12/25 01:00:37;;;;;;;;;;;;;;;11.42;80.50;99753.66;7368744;19;19942;-66
2023/12/25 01:03:02;;;;;;;;;;;;;;;11.42;80.41;99756.28;7363688;19;19918;-66
2023/12/25 01:05:27;;;;;;;;;;;;;;;11.41;80.30;99752.81;7367469;19;19926;-66
2023/12/25 01:07:53;;;;;;;;;;;;;;;11.42;80.49;99761.50;7366655;19;19922;-67
2023/12/25 01:10:18;;;;;;;;;;;;;;;11.41;80.61;99757.19;7365367;19;19927;-66
2023/12/25 01:12:43;;;;;;;;;;;;;;;11.41;80.65;99741.53;7366812;19;19911;-66
2023/12/25 01:15:09;;;;;;;;;;;;;;;11.42;80.75;99748.44;7369831;19;20648;-67
2023/12/25 01:17:34;;;;;;;;;;;;;;;11.42;80.74;99749.28;7367330;19;19934;-67
2023/12/25 01:19:59;;;;;;;;;;;;;;;11.42;80.41;99759.75;7372994;19;19922;-67
2023/12/25 01:22:24;;;;;;;;;;;;;;;11.43;80.27;99744.91;7366490;19;20631;-67
2023/12/25 01:24:50;;;;;;;;;;;;;;;11.43;80.58;99745.75;7365751;19;19919;-66
2023/12/25 01:27:15;;;;;;;;;;;;;;;11.44;80.68;99754.44;7370485;19;20268;-67
2023/12/25 01:29:40;;;;;;;;;;;;;;;11.43;80.53;99755.38;7361685;19;19911;-66
2023/12/25 01:32:06;;;;;;;;;;;;;;;11.45;80.59;99756.13;7362179;19;19923;-67
2023/12/25 01:34:31;;;;;;;;;;;;;;;11.45;80.44;99756.13;7352940;19;20374;-67
2023/12/25 01:36:56;;;;;;;;;;;;;;;11.47;80.77;99751.72;7365766;19;20748;-67
2023/12/25 01:39:23;;;;;;;;;;;;;;;11.48;80.59;99748.19;7366872;19;19938;-67
2023/12/25 01:41:48;;;;;;;;;;;;;;;11.49;80.32;99749.03;7375052;19;19923;-67
2023/12/25 01:44:14;;;;;;;;;;;;;;;11.48;80.24;99748.19;7367559;19;19937;-67
2023/12/25 01:46:39;;;;;;;;;;;;;;;11.49;80.50;99749.03;7375591;19;19919;-67
2023/12/25 01:49:05;;;;;;;;;;;;;;;11.47;80.40;99751.72;7379523;19;20650;-67
2023/12/25 01:51:31;;;;;;;;;;;;;;;11.47;80.50;99746.50;7375367;19;20279;-67
2023/12/25 01:53:57;;;;;;;;;;;;;;;11.44;80.42;99742.22;7368927;19;19987;-67
2023/12/25 01:56:22;;;;;;;;;;;;;;;11.44;80.46;99759.66;7375425;19;19949;-66
2023/12/25 01:58:47;;;;;;;;;;;;;;;11.42;80.06;99749.28;7366427;19;19934;-67
2023/12/25 02:01:12;;;;;;;;;;;;;;;11.41;80.08;99762.44;7372005;19;20358;-67
2023/12/25 02:03:38;;;;;;;;;;;;;;;11.40;79.87;99765.94;7370702;19;19923;-67
2023/12/25 02:06:04;;;;;;;;;;;;;;;11.38;79.88;99762.53;7372921;19;19925;-67
2023/12/25 02:08:29;;;;;;;;;;;;;;;11.37;80.24;99766.06;7373553;19;19937;-67
2023/12/25 02:10:55;;;;;;;;;;;;;;;11.38;80.38;99773.00;7366359;19;19918;-67
2023/12/25 02:13:20;;;;;;;;;;;;;;;11.38;80.13;99780.84;7369230;19;19979;-67
2023/12/25 02:15:46;;;;;;;;;;;;;;;11.38;80.11;99778.22;7373118;19;19919;-66
2023/12/25 02:18:12;;;;;;;;;;;;;;;11.39;80.13;99774.69;7367653;19;19919;-66
2023/12/25 02:20:37;;;;;;;;;;;;;;;11.40;80.20;99771.16;7373594;19;20326;-66
2023/12/25 02:23:05;;;;;;;;;;;;;;;11.35;80.24;99767.88;7373554;19;19923;-67
2023/12/25 02:25:32;;;;;;;;;;;;;;;11.42;80.29;99780.66;7375318;19;20643;-67
2023/12/25 02:27:57;;;;;;;;;;;;;;;11.44;80.20;99777.97;7371944;19;20361;-67
2023/12/25 02:30:23;;;;;;;;;;;;;;;11.45;80.53;99777.06;7372678;19;19929;-67
2023/12/25 02:32:48;;;;;;;;;;;;;;;11.47;80.63;99772.63;7370766;19;19915;-67
2023/12/25 02:35:13;;;;;;;;;;;;;;;11.48;80.27;99778.69;7371683;19;19944;-66
2023/12/25 02:37:39;;;;;;;;;;;;;;;11.48;80.21;99779.56;7372552;19;19918;-66
2023/12/25 02:40:05;;;;;;;;;;;;;;;11.50;80.53;99787.31;7372087;19;19925;-67
2023/12/25 02:42:30;;;;;;;;;;;;;;;11.50;80.58;99782.94;7371092;19;19914;-66
2023/12/25 02:44:56;;;;;;;;;;;;;;;11.52;80.12;99788.97;7372697;19;19962;-67
2023/12/25 02:47:21;;;;;;;;;;;;;;;11.52;80.19;99773.28;7370423;19;19914;-67
2023/12/25 02:49:46;;;;;;;;;;;;;;;11.52;80.37;99785.50;7371278;19;19918;-67
2023/12/25 02:52:11;;;;;;;;;;;;;;;11.52;80.32;99802.06;7372154;19;19929;-67
2023/12/25 02:54:37;;;;;;;;;;;;;;;11.53;80.18;99803.75;7368449;19;19927;-66
2023/12/25 02:57:02;;;;;;;;;;;;;;;11.51;80.08;99800.34;7366777;19;19919;-67
2023/12/25 02:59:27;;;;;;;;;;;;;;;11.52;80.41;99796.81;7365727;19;19927;-66
2023/12/25 03:01:53;;;;;;;;;;;;;;;11.52;80.36;99796.81;7370123;19;19922;-67
2023/12/25 03:04:18;;;;;;;;;;;;;;;11.53;80.10;99797.66;7368782;19;20034;-67
2023/12/25 03:06:43;;;;;;;;;;;;;;;11.53;80.07;99798.50;7369177;19;19918;-66
2023/12/25 03:09:08;;;;;;;;;;;;;;;11.55;80.03;99806.28;7366309;19;20267;-67
2023/12/25 03:11:34;;;;;;;;;;;;;;;11.57;80.33;99799.25;7370524;19;19921;-67
2023/12/25 03:13:59;;;;;;;;;;;;;;;11.57;80.45;99800.09;7365533;19;19926;-66
2023/12/25 03:16:24;;;;;;;;;;;;;;;11.57;80.20;99805.31;7370517;19;19911;-67
2023/12/25 03:18:50;;;;;;;;;;;;;;;11.58;80.41;99796.56;7368648;19;19933;-66
2023/12/25 03:21:15;;;;;;;;;;;;;;;11.58;79.95;99804.41;7374575;19;19915;-67
2023/12/25 03:23:40;;;;;;;;;;;;;;;11.60;80.14;99818.25;7373442;19;19933;-68
2023/12/25 03:26:05;;;;;;;;;;;;;;;11.61;79.99;99817.38;7366576;19;19919;-67
2023/12/25 03:28:31;;;;;;;;;;;;;;;11.61;80.38;99800.84;7373202;19;19927;-67
2023/12/25 03:30:56;;;;;;;;;;;;;;;11.62;80.38;99800.75;7364008;19;20006;-67
2023/12/25 03:33:21;;;;;;;;;;;;;;;11.63;80.12;99809.44;7370123;19;19926;-67
2023/12/25 03:35:46;;;;;;;;;;;;;;;11.63;79.96;99814.69;7367741;19;20728;-67
2023/12/25 03:38:12;;;;;;;;;;;;;;;11.63;80.14;99805.06;7369456;19;19945;-66
2023/12/25 03:40:39;;;;;;;;;;;;;;;11.64;80.03;99801.53;7368552;19;19942;-66
2023/12/25 03:43:04;;;;;;;;;;;;;;;11.64;80.34;99791.06;7367546;19;19927;-67
2023/12/25 03:45:29;;;;;;;;;;;;;;;11.64;79.79;99788.47;7364314;19;20335;-67
2023/12/25 03:47:55;;;;;;;;;;;;;;;11.64;79.79;99790.22;7369313;19;19921;-67
2023/12/25 03:50:20;;;;;;;;;;;;;;;11.65;80.07;99782.31;7366797;19;20262;-66
2023/12/25 03:52:45;;;;;;;;;;;;;;;11.65;80.24;99769.22;7369209;19;19923;-67
2023/12/25 03:55:10;;;;;;;;;;;;;;;11.64;79.92;99770.16;7366306;19;19925;-67
2023/12/25 03:57:36;;;;;;;;;;;;;;;11.64;79.60;99775.38;7368283;19;19940;-67
2023/12/25 04:00:01;;;;;;;;;;;;;;;11.63;79.67;99789.38;7364732;19;19914;-67
2023/12/25 04:02:26;;;;;;;;;;;;;;;11.62;79.56;99782.44;7367834;19;19921;-67
2023/12/25 04:04:51;;;;;;;;;;;;;;;11.59;79.63;99793.03;7364710;19;19927;-67
2023/12/25 04:07:17;;;;;;;;;;;;;;;11.57;79.34;99788.78;7368183;19;19922;-67
2023/12/25 04:09:42;;;;;;;;;;;;;;;11.55;79.47;99782.75;7364863;19;19914;-67
2023/12/25 04:12:07;;;;;;;;;;;;;;;11.52;79.28;99781.13;7361558;19;19939;-67
2023/12/25 04:14:37;;;;;;;;;;;;;;;11.50;79.38;99776.88;7370028;19;19974;-67
2023/12/25 04:17:02;;;;;;;;;;;;;;;11.49;79.67;99775.16;7340806;19;19922;-66
2023/12/25 04:19:27;;;;;;;;;;;;;;;11.47;79.62;99783.09;7362191;19;19915;-67
2023/12/25 04:21:52;;;;;;;;;;;;;;;11.44;79.26;99777.97;7367482;19;19925;-66
2023/12/25 04:24:17;;;;;;;;;;;;;;;11.43;79.72;99777.13;7364536;19;20367;-67
2023/12/25 04:26:43;;;;;;;;;;;;;;;11.43;79.42;99765.81;7369079;19;20455;-66
2023/12/25 04:29:09;;;;;;;;;;;;;;;11.42;79.63;99766.75;7368617;19;19915;-67
2023/12/25 04:31:34;;;;;;;;;;;;;;;11.43;79.95;99776.28;7367870;19;19957;-67
2023/12/25 04:33:59;;;;;;;;;;;;;;;11.43;79.62;99765.81;7367934;19;20622;-67
2023/12/25 04:36:25;;;;;;;;;;;;;;;11.44;79.61;99772.75;7369150;19;19933;-67
2023/12/25 04:38:50;;;;;;;;;;;;;;;11.44;79.67;99783.19;7366215;19;19919;-66
2023/12/25 04:41:20;;;;;;;;;;;;;;;11.44;79.59;99777.97;7366000;19;19929;-67
2023/12/25 04:43:45;;;;;;;;;;;;;;;11.43;79.52;99776.28;7366549;19;19933;-67
2023/12/25 04:46:10;;;;;;;;;;;;;;;11.44;79.85;99783.19;7366991;19;20492;-67
2023/12/25 04:48:35;;;;;;;;;;;;;;;11.44;79.89;99777.97;7367405;19;19925;-67
2023/12/25 04:51:02;;;;;;;;;;;;;;;11.44;79.62;99770.13;7363168;19;20603;-67
2023/12/25 04:53:29;;;;;;;;;;;;;;;11.44;79.89;99767.50;7364089;19;20430;-66
2023/12/25 04:55:54;;;;;;;;;;;;;;;11.45;79.94;99758.75;7364688;19;19914;-67
2023/12/25 04:58:20;;;;;;;;;;;;;;;11.47;79.67;99771.78;7365245;19;19942;-67
2023/12/25 05:00:46;;;;;;;;;;;;;;;11.46;79.77;99773.56;7357948;19;19919;-66
2023/12/25 05:03:11;;;;;;;;;;;;;;;11.47;79.45;99771.78;7365893;19;20363;-67
2023/12/25 05:05:36;;;;;;;;;;;;;;;11.47;79.80;99777.84;7369875;19;20700;-66
2023/12/25 05:08:01;;;;;;;;;;;;;;;11.47;79.69;99761.31;7364355;19;19922;-67
2023/12/25 05:10:27;;;;;;;;;;;;;;;11.48;79.60;99763.03;7366054;19;19942;-66
2023/12/25 05:12:52;;;;;;;;;;;;;;;11.48;79.68;99758.63;7362056;19;19918;-66
2023/12/25 05:15:17;;;;;;;;;;;;;;;11.48;79.55;99756.03;7369796;19;19947;-68
2023/12/25 05:17:42;;;;;;;;;;;;;;;11.49;79.62;99747.25;7369875;19;19919;-67
2023/12/25 05:20:08;;;;;;;;;;;;;;;11.50;79.53;99756.78;7368411;19;19919;-66
2023/12/25 05:22:33;;;;;;;;;;;;;;;11.51;79.39;99750.69;7366618;19;19930;-67
2023/12/25 05:24:58;;;;;;;;;;;;;;;11.51;79.83;99748.06;7361603;19;19926;-66
2023/12/25 05:27:24;;;;;;;;;;;;;;;11.51;79.64;99752.44;7361633;19;19919;-64
2023/12/25 05:29:49;;;;;;;;;;;;;;;11.40;79.79;99724.09;7366294;19;19923;-64
2023/12/25 05:32:14;;;;;;;;;;;;;;;11.51;79.35;99748.06;7368083;19;19956;-64
2023/12/25 05:34:39;;;;;;;;;;;;;;;11.51;79.38;99742.00;7366342;19;19911;-64
2023/12/25 05:37:04;;;;;;;;;;;;;;;11.51;79.43;99736.75;7367973;19;20807;-63
2023/12/25 05:39:30;;;;;;;;;;;;;;;11.50;79.34;99735.88;7363270;19;19922;-62
2023/12/25 05:41:55;;;;;;;;;;;;;;;11.50;79.14;99742.88;7363458;19;19943;-62
2023/12/25 05:44:20;;;;;;;;;;;;;;;11.48;79.62;99758.63;7366197;19;20343;-63
2023/12/25 05:46:45;;;;;;;;;;;;;;;11.47;79.57;99756.94;7363020;19;19926;-64
2023/12/25 05:49:11;;;;;;;;;;;;;;;11.46;79.28;99749.16;7374094;19;19922;-63
2023/12/25 05:51:36;;;;;;;;;;;;;;;11.44;78.98;99746.59;7359660;19;19926;-63
2023/12/25 05:54:01;;;;;;;;;;;;;;;11.42;79.16;99743.22;7364946;19;19914;-63
2023/12/25 05:56:27;;;;;;;;;;;;;;;11.40;79.20;99745.03;7363170;19;19964;-62
2023/12/25 05:58:52;;;;;;;;;;;;;;;11.38;78.97;99725.94;7373799;19;19923;-64
2023/12/25 06:01:18;;;;;;;;;;;;;;;11.37;79.00;99726.88;7366169;19;20263;-63
2023/12/25 06:03:43;;;;;;;;;;;;;;;11.35;79.01;99719.09;7371040;19;20319;-63
2023/12/25 06:06:08;;;;;;;;;;;;;;;11.35;79.26;99731.28;7363895;19;19919;-63
2023/12/25 06:08:33;;;;;;;;;;;;;;;11.32;78.94;99727.06;7365329;19;19948;-64
2023/12/25 06:10:59;;;;;;;;;;;;;;;11.31;78.96;99734.97;7360851;19;19918;-62
2023/12/25 06:13:24;;;;;;;;;;;;;;;11.29;79.02;99732.41;7364075;19;19929;-64
2023/12/25 06:15:49;;;;;;;;;;;;;;;11.28;78.95;99741.16;7358451;19;19930;-63
2023/12/25 06:18:15;;;;;;;;;;;;;;;11.27;78.95;99743.84;7361695;19;20316;-61
2023/12/25 06:20:40;;;;;;;;;;;;;;;11.25;79.28;99740.41;7363239;19;19918;-65
2023/12/25 06:23:05;;;;;;;;;;;;;;;11.23;79.17;99752.72;7363661;19;19935;-62
2023/12/25 06:25:31;;;;;;;;;;;;;;;11.20;78.83;99743.22;7368371;19;19949;-64
2023/12/25 06:27:56;;;;;;;;;;;;;;;11.19;79.00;99744.13;7371139;19;19919;-63
2023/12/25 06:30:21;;;;;;;;;;;;;;;11.16;78.85;99734.69;7373152;19;19919;-64
2023/12/25 06:32:46;;;;;;;;;;;;;;;11.15;78.84;99732.97;7371460;19;19919;-61
2023/12/25 06:35:12;;;;;;;;;;;;;;;11.13;79.25;99732.19;7369904;19;20003;-63
2023/12/25 06:37:37;;;;;;;;;;;;;;;11.11;79.25;99741.00;7368261;19;20002;-63
2023/12/25 06:40:02;;;;;;;;;;;;;;;11.09;79.33;99746.28;7372384;19;19954;-63
2023/12/25 06:42:28;;;;;;;;;;;;;;;11.08;79.31;99734.13;7373303;19;20656;-64
2023/12/25 06:44:53;;;;;;;;;;;;;;;11.07;78.84;99727.19;7366827;19;19927;-63
2023/12/25 06:47:18;;;;;;;;;;;;;;;11.06;79.17;99732.50;7369514;19;19942;-63
2023/12/25 06:49:43;;;;;;;;;;;;;;;11.05;79.31;99733.38;7372090;19;20342;-61
2023/12/25 06:52:09;;;;;;;;;;;;;;;11.04;79.22;99743.00;7369521;19;20332;-63
2023/12/25 06:54:34;;;;;;;;;;;;;;;11.02;79.03;99739.59;7367364;19;19957;-64
2023/12/25 06:56:59;;;;;;;;;;;;;;;11.02;79.45;99742.22;7366028;19;19946;-64
2023/12/25 06:59:24;;;;;;;;;;;;;;;11.01;79.36;99732.69;7367149;19;19926;-64
2023/12/25 07:01:50;;;;;;;;;;;;;;;11.01;79.02;99737.91;7370501;19;19926;-62
2023/12/25 07:04:15;;;;;;;;;;;;;;;11.01;79.26;99742.28;7371421;19;19922;-62
2023/12/25 07:06:40;;;;;;;;;;;;;;;11.01;79.39;99757.97;7370865;19;19918;-62
2023/12/25 07:09:05;;;;;;;;;;;;;;;11.00;79.39;99767.56;7369698;19;19918;-63
2023/12/25 07:11:31;;;;;;;;;;;;;;;11.00;79.42;99775.41;7370425;19;19923;-63
2023/12/25 07:13:56;;;;;;;;;;;;;;;11.02;79.27;99773.56;7367344;19;20624;-63
2023/12/25 07:16:22;;;;;;;;;;;;;;;11.02;79.66;99773.56;7369168;19;19911;-63
2023/12/25 07:18:48;;;;;;;;;;;;;;;11.03;79.42;99772.66;7366918;19;19922;-63
2023/12/25 07:21:14;;;;;;;;;;;;;;;11.04;79.33;99779.56;7369408;19;19918;-62
2023/12/25 07:23:39;;;;;;;;;;;;;;;11.04;79.61;99784.78;7370307;19;19926;-64
2023/12/25 07:26:05;;;;;;;;;;;;;;;11.04;79.19;99776.94;7361705;19;19943;-64
2023/12/25 07:28:30;;;;;;;;;;;;;;;11.06;79.53;99769.06;7367855;19;19922;-64
2023/12/25 07:30:55;;;;;;;;;;;;;;;11.04;79.50;99763.88;7372614;19;20134;-62
2023/12/25 07:33:20;;;;;;;;;;;;;;;11.05;79.46;99755.16;7367473;19;19922;-63
2023/12/25 07:35:46;;;;;;;;;;;;;;;11.05;79.40;99736.88;7371524;19;19925;-65
2023/12/25 07:38:11;;;;;;;;;;;;;;;11.04;79.12;99743.00;7363381;19;19925;-64
2023/12/25 07:40:36;;;;;;;;;;;;;;;11.05;79.09;99746.44;7369487;19;19925;-64
2023/12/25 07:43:02;;;;;;;;;;;;;;;11.04;79.04;99743.00;7367577;19;20306;-63
2023/12/25 07:45:27;;;;;;;;;;;;;;;11.04;79.08;99739.53;7369733;19;19919;-62
2023/12/25 07:47:52;;;;;;;;;;;;;;;11.03;79.04;99741.28;7372056;19;19918;-63
2023/12/25 07:50:17;;;;;;;;;;;;;;;11.01;79.30;99732.69;7361598;19;19930;-63
2023/12/25 07:52:43;;;;;;;;;;;;;;;11.01;79.22;99724.84;7370434;19;19964;-64
2023/12/25 07:55:08;;;;;;;;;;;;;;;11.00;79.20;99736.22;7364807;19;19926;-63
2023/12/25 07:57:33;;;;;;;;;;;;;;;10.99;79.22;99744.94;7356019;19;19923;-63
2023/12/25 07:59:59;;;;;;;;;;;;;;;10.97;78.99;99743.31;7370380;19;19919;-62
2023/12/25 08:02:24;;;;;;;;;;;;;;;10.84;79.07;99738.56;7372489;19;19949;-64
2023/12/25 08:04:49;;;;;;;;;;;;;;;10.95;78.99;99768.63;7369109;19;19931;-64
2023/12/25 08:07:14;;;;;;;;;;;;;;;10.93;78.84;99776.53;7361368;19;19922;-63
2023/12/25 08:09:40;;;;;;;;;;;;;;;10.92;79.09;99777.44;7370770;19;19941;-63
2023/12/25 08:12:05;;;;;;;;;;;;;;;10.92;79.17;99769.59;7365484;19;20380;-63
2023/12/25 08:14:30;;;;;;;;;;;;;;;10.92;79.06;99761.78;7365636;19;20374;-64
2023/12/25 08:16:56;;;;;;;;;;;;;;;10.90;79.22;99767.06;7369738;19;19907;-64
2023/12/25 08:19:21;;;;;;;;;;;;;;;10.90;78.95;99755.78;7359254;19;19927;-64
2023/12/25 08:21:46;;;;;;;;;;;;;;;10.86;79.42;99748.97;7367538;19;19919;-64
2023/12/25 08:24:11;;;;;;;;;;;;;;;10.90;79.27;99746.16;7366014;19;19946;-62
2023/12/25 08:26:37;;;;;;;;;;;;;;;10.91;79.08;99757.47;7366928;19;19907;-63
2023/12/25 08:29:02;;;;;;;;;;;;;;;10.92;79.06;99748.72;7361818;19;19935;-64
2023/12/25 08:31:27;;;;;;;;;;;;;;;10.92;79.54;99743.50;7366290;19;20360;-63
2023/12/25 08:33:52;;;;;;;;;;;;;;;10.95;79.47;99742.50;7367470;19;19930;-64
2023/12/25 08:36:18;;;;;;;;;;;;;;;10.95;79.14;99742.50;7359856;19;19906;-64
2023/12/25 08:38:43;;;;;;;;;;;;;;;10.97;79.53;99740.69;7365171;19;19927;-63
2023/12/25 08:41:08;;;;;;;;;;;;;;;10.97;79.60;99736.31;7372847;19;19915;-63
2023/12/25 08:43:33;;;;;;;;;;;;;;;10.99;79.31;99738.88;7356546;19;19990;-63
2023/12/25 08:45:59;;;;;;;;;;;;;;;11.01;79.67;99711.78;7369738;19;19911;-67
2023/12/25 08:48:24;;;;;;;;;;;;;;;11.01;79.66;99724.84;7359034;19;19923;-67
2023/12/25 08:50:49;;;;;;;;;;;;;;;11.04;79.41;99714.25;7368753;19;19914;-67
2023/12/25 08:53:14;;;;;;;;;;;;;;;11.07;79.54;99727.19;7364030;19;19940;-67
2023/12/25 08:55:40;;;;;;;;;;;;;;;11.08;79.35;99734.13;7365751;19;20283;-67
2023/12/25 08:58:05;;;;;;;;;;;;;;;11.10;79.56;99731.44;7363970;19;19995;-67
2023/12/25 09:00:30;;;;;;;;;;;;;;;11.12;79.26;99738.31;7365970;19;19927;-67
2023/12/25 09:02:56;;;;;;;;;;;;;;;11.14;79.18;99753.94;7362698;19;19926;-67
2023/12/25 09:05:21;;;;;;;;;;;;;;;11.15;79.22;99772.19;7364566;19;20746;-66
2023/12/25 09:07:46;;;;;;;;;;;;;;;11.16;79.10;99767.78;7361806;19;19950;-67
2023/12/25 09:10:11;;;;;;;;;;;;;;;11.15;79.40;99766.94;7364336;19;19932;-67
2023/12/25 09:12:38;;;;;;;;;;;;;;;11.16;79.01;99757.34;7361771;19;19998;-66
2023/12/25 09:15:04;;;;;;;;;;;;;;;11.17;79.14;99756.44;7361640;19;21406;-67
2023/12/25 09:17:29;;;;;;;;;;;;;;;11.18;79.29;99756.34;7362801;19;20327;-67
2023/12/25 09:19:55;;;;;;;;;;;;;;;11.18;79.22;99766.81;7353369;19;19922;-67
2023/12/25 09:22:23;;;;;;;;;;;;;;;11.20;78.88;99755.44;7365065;19;19918;-67
2023/12/25 09:24:48;;;;;;;;;;;;;;;11.20;78.99;99758.06;7364359;19;21773;-67
2023/12/25 09:27:14;;;;;;;;;;;;;;;11.21;78.90;99749.31;7361048;19;19938;-65
2023/12/25 09:29:39;;;;;;;;;;;;;;;11.21;79.27;99747.56;7362954;19;19907;-66
2023/12/25 09:32:04;;;;;;;;;;;;;;;11.22;79.32;99735.34;7367022;19;19926;-66
2023/12/25 09:34:29;;;;;;;;;;;;;;;11.24;79.24;99717.81;7367330;19;19914;-66
2023/12/25 09:36:56;;;;;;;;;;;;;;;11.23;79.22;99705.69;7360992;19;19946;-66
2023/12/25 09:39:22;;;;;;;;;;;;;;;11.22;79.06;99704.81;7360081;19;19990;-66
2023/12/25 09:41:47;;;;;;;;;;;;;;;11.22;78.79;99709.22;7364865;19;19998;-66
2023/12/25 09:44:12;;;;;;;;;;;;;;;11.23;78.87;99729.19;7367306;19;19978;-65
2023/12/25 09:46:38;;;;;;;;;;;;;;;11.23;78.79;99727.44;7363289;19;19923;-66
2023/12/25 09:49:04;;;;;;;;;;;;;;;11.24;78.72;99713.44;7364883;19;19927;-66
2023/12/25 09:51:32;;;;;;;;;;;;;;;11.25;79.18;99709.06;7363618;19;20395;-66
2023/12/25 09:53:58;;;;;;;;;;;;;;;11.26;78.76;99722.09;7364544;19;19985;-66
2023/12/25 09:56:23;;;;;;;;;;;;;;;11.27;78.77;99715.09;7372430;19;19919;-66
2023/12/25 09:58:48;;;;;;;;;;;;;;;11.27;78.76;99697.66;7364393;19;20178;-66
2023/12/25 10:01:15;;;;;;;;;;;;;;;11.28;78.77;99701.09;7373441;19;19923;-66
2023/12/25 10:03:43;;;;;;;;;;;;;;;11.29;78.73;99694.97;7372523;19;19914;-66
2023/12/25 10:06:09;;;;;;;;;;;;;;;11.30;79.06;99686.19;7377098;19;19923;-66
2023/12/25 10:08:36;;;;;;;;;;;;;;;11.32;78.79;99689.63;7376249;19;19923;-65
2023/12/25 10:11:02;;;;;;;;;;;;;;;11.32;79.06;99679.16;7377771;19;19928;-66
2023/12/25 10:13:28;;;;;;;;;;;;;;;11.33;78.92;99694.78;7372174;19;20331;-65
2023/12/25 10:15:53;;;;;;;;;;;;;;;11.34;78.93;99700.84;7373827;19;20017;-66
2023/12/25 10:18:19;;;;;;;;;;;;;;;11.34;78.90;99703.47;7371722;19;20464;-65
2023/12/25 10:20:55;;;;;;;;;;;;;;;11.36;78.99;99692.03;7374114;19;19954;-66
2023/12/25 10:23:26;;;;;;;;;;;;;;;11.38;78.80;99700.66;7369769;19;19914;-65
2023/12/25 10:25:52;;;;;;;;;;;;;;;11.39;78.78;99702.34;7369151;19;19923;-66
2023/12/25 10:28:18;;;;;;;;;;;;;;;11.40;79.10;99687.50;7373615;19;19911;-65
2023/12/25 10:30:44;;;;;;;;;;;;;;;11.43;78.68;99687.41;7368405;19;20346;-66
2023/12/25 10:33:14;;;;;;;;;;;;;;;11.43;78.62;99690.84;7369354;19;19911;-65
2023/12/25 10:35:39;;;;;;;;;;;;;;;11.46;78.60;99691.66;7369151;19;19923;-66
2023/12/25 10:38:05;;;;;;;;;;;;;;;11.46;78.53;99691.66;7373044;19;19923;-66
2023/12/25 10:40:31;;;;;;;;;;;;;;;11.46;78.49;99695.13;7371004;19;19923;-65
2023/12/25 10:42:57;;;;;;;;;;;;;;;11.45;78.33;99696.00;7367968;19;19930;-66
2023/12/25 10:45:23;;;;;;;;;;;;;;;11.43;78.46;99695.25;7371049;19;19918;-66
2023/12/25 10:47:53;;;;;;;;;;;;;;;11.42;78.70;99706.63;7369868;19;19927;-66
2023/12/25 10:50:20;;;;;;;;;;;;;;;11.40;78.31;99718.88;7368214;19;20691;-66
2023/12/25 10:52:47;;;;;;;;;;;;;;;11.41;78.68;99718.00;7364931;19;19926;-66
2023/12/25 10:55:14;;;;;;;;;;;;;;;11.41;78.60;99731.06;7368091;19;19939;-66
2023/12/25 10:57:39;;;;;;;;;;;;;;;11.40;78.57;99725.00;7367899;19;19931;-66
2023/12/25 11:00:05;;;;;;;;;;;;;;;11.42;78.45;99722.31;7360627;19;19911;-67
2023/12/25 11:02:35;;;;;;;;;;;;;;;11.42;78.65;99706.63;7369676;19;20327;-66
2023/12/25 11:05:01;;;;;;;;;;;;;;;11.42;78.72;99685.69;7373714;19;19931;-66
2023/12/25 11:07:26;;;;;;;;;;;;;;;11.43;78.55;99682.16;7371334;19;19927;-66
2023/12/25 11:09:53;;;;;;;;;;;;;;;11.44;78.59;99673.41;7370968;19;19950;-66
2023/12/25 11:12:19;;;;;;;;;;;;;;;11.45;78.36;99675.09;7365186;19;19922;-65
2023/12/25 11:14:44;;;;;;;;;;;;;;;11.48;78.80;99659.28;7370984;19;19929;-66
2023/12/25 11:17:10;;;;;;;;;;;;;;;11.50;78.38;99651.38;7363608;19;20685;-66
2023/12/25 11:19:36;;;;;;;;;;;;;;;11.44;78.30;99636.81;7366143;19;19954;-65
2023/12/25 11:22:21;;;;;;;;;;;;;;;11.52;78.66;99655.63;7370480;19;19923;-66
2023/12/25 11:24:46;;;;;;;;;;;;;;;11.53;78.34;99652.09;7368379;19;19922;-65
2023/12/25 11:27:16;;;;;;;;;;;;;;;11.53;78.81;99657.31;7367457;19;20267;-66
2023/12/25 11:29:41;;;;;;;;;;;;;;;11.54;78.34;99661.63;7360841;19;20589;-65
2023/12/25 11:32:08;;;;;;;;;;;;;;;11.56;78.89;99654.59;7368591;19;19919;-66
2023/12/25 11:34:38;;;;;;;;;;;;;;;11.58;78.73;99644.91;7368992;19;19936;-66
2023/12/25 11:37:16;;;;;;;;;;;;;;;11.61;78.45;99636.94;7366506;19;19949;-66
2023/12/25 11:39:48;;;;;;;;;;;;;;;11.64;78.86;99636.78;7362333;19;19923;-66
2023/12/25 11:42:13;;;;;;;;;;;;;;;11.66;78.96;99637.59;7364897;19;20014;-66
2023/12/25 11:44:40;;;;;;;;;;;;;;;11.68;78.85;99640.13;7367218;19;19983;-66
2023/12/25 11:47:05;;;;;;;;;;;;;;;11.70;78.63;99633.91;7363618;19;20303;-65
2023/12/25 11:49:35;;;;;;;;;;;;;;;11.73;78.96;99624.22;7374413;19;20384;-66
2023/12/25 11:52:01;;;;;;;;;;;;;;;11.75;78.78;99619.75;7362886;19;19927;-65
2023/12/25 11:54:33;;;;;;;;;;;;;;;11.78;78.86;99635.34;7360151;19;19917;-66
2023/12/25 11:57:02;;;;;;;;;;;;;;;11.80;78.47;99623.03;7376645;19;20597;-66
2023/12/25 11:59:28;;;;;;;;;;;;;;;11.82;78.43;99623.84;7372910;19;20779;-66
2023/12/25 12:01:54;;;;;;;;;;;;;;;11.84;78.69;99614.16;7365530;19;19918;-66
2023/12/25 12:04:19;;;;;;;;;;;;;;;11.85;78.39;99621.09;7369718;19;19911;-66
2023/12/25 12:06:44;;;;;;;;;;;;;;;11.87;78.35;99603.56;7368875;19;19974;-65
2023/12/25 12:09:10;;;;;;;;;;;;;;;11.89;78.53;99620.88;7365094;19;19914;-66
2023/12/25 12:11:35;;;;;;;;;;;;;;;11.92;78.37;99617.28;7346512;19;20348;-66
2023/12/25 12:14:02;;;;;;;;;;;;;;;11.95;78.45;99617.13;7368846;19;20534;-66
2023/12/25 12:16:27;;;;;;;;;;;;;;;11.95;78.67;99619.75;7356433;19;19926;-66
2023/12/25 12:18:53;;;;;;;;;;;;;;;11.97;78.71;99589.16;7367726;19;19927;-66
2023/12/25 12:21:18;;;;;;;;;;;;;;;12.00;78.19;99596.84;7363084;19;19930;-65
2023/12/25 12:23:43;;;;;;;;;;;;;;;12.01;78.52;99590.69;7366594;19;19919;-65
2023/12/25 12:26:15;;;;;;;;;;;;;;;12.04;78.37;99593.16;7356541;19;19937;-66
2023/12/25 12:28:42;;;;;;;;;;;;;;;12.06;78.33;99573.00;7362122;19;19956;-66
2023/12/25 12:31:07;;;;;;;;;;;;;;;12.09;78.49;99599.03;7361714;19;20343;-66
2023/12/25 12:33:32;;;;;;;;;;;;;;;12.13;78.21;99581.44;7359781;19;19907;-65
2023/12/25 12:35:58;;;;;;;;;;;;;;;12.13;78.20;99582.28;7362810;19;19911;-65
2023/12/25 12:38:25;;;;;;;;;;;;;;;12.15;78.30;99582.19;7355976;19;19937;-65